Time;durP1;ratioP1;P1;durP2;ratioP2;P2;SDS_P1;SDS_P2;PMS_P1;PMS_P2;Temp;Humidity;BMP_temperature;BMP_pressure;BME280_temperature;BME280_humidity;BME280_pressure;Samples;Min_cycle;Max_cycle;Signal;HPM_P1;HPM_P2
2022/11/28 15:53:18;;;;;;;11.27;7.97;;;;;;;;;;5098360;22;20364;-67
2022/11/28 15:55:45;;;;;;;14.77;8.73;;;;;;;;;;5095229;28;20214;-67
2022/11/28 15:58:18;;;;;;;13.33;7.53;;;;;;;;;;5101546;28;20277;-68
2022/11/28 16:00:47;;;;;;;10.10;7.20;;;;;;;;;;5093349;28;20233;-68
2022/11/28 16:03:15;;;;;;;8.93;7.30;;;;;;;;;;5103966;28;20210;-67
2022/11/28 16:05:44;;;;;;;7.33;6.57;;;;;;;;;;5097895;28;20198;-68
2022/11/28 16:08:22;;;;;;;8.47;7.10;;;;;;;;;;5102318;28;20201;-67
2022/11/28 16:10:50;;;;;;;8.53;6.77;;;;;;;;;;5102439;28;20197;-68
2022/11/28 16:13:19;;;;;;;7.23;6.13;;;;;;;;;;5099778;28;20224;-67
2022/11/28 16:15:46;;;;;;;12.67;7.77;;;;;;;;;;5100054;28;20221;-68
2022/11/28 16:18:14;;;;;;;12.70;7.37;;;;;;;;;;5094452;28;20208;-68
2022/11/28 16:20:51;;;;;;;8.03;7.23;;;;;;;;;;5099548;28;20305;-67
2022/11/28 16:23:20;;;;;;;10.27;6.40;;;;;;;;;;5095212;28;20292;-68
2022/11/28 16:25:58;;;;;;;11.10;6.40;;;;;;;;;;5100096;28;20266;-67
2022/11/28 16:28:30;;;;;;;8.77;5.43;;;;;;;;;;5097784;28;20277;-68
2022/11/28 16:30:57;;;;;;;9.57;5.40;;;;;;;;;;5094936;28;20198;-67
2022/11/28 16:33:35;;;;;;;6.73;5.40;;;;;;;;;;5097603;28;20298;-68
2022/11/28 16:36:08;;;;;;;8.60;6.53;;;;;;;;;;5098004;28;20213;-68
2022/11/28 16:38:38;;;;;;;7.00;5.70;;;;;;;;;;5095351;28;20196;-66
2022/11/28 16:41:05;;;;;;;7.73;5.97;;;;;;;;;;5096770;28;20240;-68
2022/11/28 16:43:34;;;;;;;6.80;5.07;;;;;;;;;;5102253;28;20277;-68
2022/11/28 16:46:02;;;;;;;8.00;5.10;;;;;;;;;;5100022;28;20202;-66
2022/11/28 16:48:31;;;;;;;8.70;6.73;;;;;;;;;;5088578;28;20218;-68
2022/11/28 16:51:17;;;;;;;9.00;6.43;;;;;;;;;;5094881;28;20195;-68
2022/11/28 16:53:46;;;;;;;8.20;6.60;;;;;;;;;;5097556;28;20320;-65
2022/11/28 16:56:24;;;;;;;11.37;7.43;;;;;;;;;;5108315;28;20212;-68
2022/11/28 16:58:52;;;;;;;10.53;6.50;;;;;;;;;;5105098;28;20528;-68
2022/11/28 17:01:20;;;;;;;9.40;6.37;;;;;;;;;;5101720;28;20197;-68
2022/11/28 17:03:51;;;;;;;9.07;5.83;;;;;;;;;;5098780;28;20279;-67
2022/11/28 17:06:20;;;;;;;8.20;6.40;;;;;;;;;;5090192;28;20289;-68
2022/11/28 17:08:49;;;;;;;8.37;6.43;;;;;;;;;;5087240;28;20271;-67
2022/11/28 17:11:17;;;;;;;9.23;7.00;;;;;;;;;;5088048;28;20206;-67
2022/11/28 17:13:44;;;;;;;8.40;6.50;;;;;;;;;;5086892;28;20195;-68
2022/11/28 17:16:16;;;;;;;10.00;6.67;;;;;;;;;;5085577;28;20203;-68
2022/11/28 17:18:43;;;;;;;28.47;17.63;;;;;;;;;;5081574;28;20199;-67
2022/11/28 17:21:12;;;;;;;25.40;17.63;;;;;;;;;;5090962;28;20206;-68
2022/11/28 17:23:39;;;;;;;21.67;16.67;;;;;;;;;;5096173;28;20265;-68
2022/11/28 17:26:08;;;;;;;19.17;14.90;;;;;;;;;;5084734;28;20298;-67
2022/11/28 17:28:35;;;;;;;18.77;15.23;;;;;;;;;;5082070;28;20202;-67
2022/11/28 17:31:02;;;;;;;14.67;12.97;;;;;;;;;;5083480;28;20857;-68
2022/11/28 17:33:29;;;;;;;16.70;11.33;;;;;;;;;;5077713;28;20289;-67
2022/11/28 17:35:57;;;;;;;12.37;10.50;;;;;;;;;;5083022;28;20238;-68
2022/11/28 17:38:25;;;;;;;14.83;10.33;;;;;;;;;;5085002;28;20289;-67
2022/11/28 17:40:52;;;;;;;11.57;8.73;;;;;;;;;;5079668;28;20197;-68
2022/11/28 17:43:21;;;;;;;11.97;8.90;;;;;;;;;;5085448;28;20214;-68
2022/11/28 17:45:49;;;;;;;15.07;9.33;;;;;;;;;;5083083;28;20194;-68
2022/11/28 17:48:17;;;;;;;14.00;10.90;;;;;;;;;;5082156;28;20202;-68
2022/11/28 17:50:44;;;;;;;12.40;10.20;;;;;;;;;;5089078;28;20274;-68
2022/11/28 17:53:12;;;;;;;10.93;8.07;;;;;;;;;;5088718;28;20329;-68
2022/11/28 17:55:41;;;;;;;11.20;8.37;;;;;;;;;;5079404;28;20198;-68
2022/11/28 17:58:09;;;;;;;8.67;7.60;;;;;;;;;;5080789;28;20211;-68
2022/11/28 18:00:37;;;;;;;9.43;7.73;;;;;;;;;;5080223;28;20195;-67
2022/11/28 18:03:05;;;;;;;8.90;7.50;;;;;;;;;;5086469;28;20343;-67
2022/11/28 18:05:32;;;;;;;9.00;7.37;;;;;;;;;;5085355;28;20313;-66
2022/11/28 18:07:59;;;;;;;8.80;7.90;;;;;;;;;;5087524;28;20199;-68
2022/11/28 18:10:26;;;;;;;11.07;8.33;;;;;;;;;;5086528;28;20205;-64
2022/11/28 18:12:54;;;;;;;9.93;8.93;;;;;;;;;;5085584;28;20284;-67
2022/11/28 18:15:21;;;;;;;9.93;8.57;;;;;;;;;;5083395;28;20209;-67
2022/11/28 18:17:50;;;;;;;11.93;9.60;;;;;;;;;;5080127;28;20289;-67
2022/11/28 18:20:17;;;;;;;13.00;8.83;;;;;;;;;;5079981;28;20270;-67
2022/11/28 18:22:44;;;;;;;11.93;10.20;;;;;;;;;;5083702;28;20217;-67
2022/11/28 18:25:11;;;;;;;13.63;9.50;;;;;;;;;;5086164;28;20210;-67
2022/11/28 18:27:38;;;;;;;12.63;10.70;;;;;;;;;;5087881;28;20229;-67
2022/11/28 18:30:06;;;;;;;11.07;9.97;;;;;;;;;;5081400;28;20264;-64
2022/11/28 18:32:33;;;;;;;10.70;9.60;;;;;;;;;;5080035;28;20337;-68
2022/11/28 18:35:02;;;;;;;14.67;10.93;;;;;;;;;;5087091;28;20208;-67
2022/11/28 18:37:29;;;;;;;14.77;10.77;;;;;;;;;;5090721;28;20292;-66
2022/11/28 18:39:56;;;;;;;11.93;9.50;;;;;;;;;;5079908;28;20248;-66
2022/11/28 18:42:23;;;;;;;13.07;10.90;;;;;;;;;;5081504;28;20311;-69
2022/11/28 18:44:50;;;;;;;11.90;10.03;;;;;;;;;;5082916;28;20198;-66
2022/11/28 18:47:18;;;;;;;14.27;11.13;;;;;;;;;;5080069;28;20292;-67
2022/11/28 18:49:45;;;;;;;13.43;10.70;;;;;;;;;;5081512;28;20388;-67
2022/11/28 18:52:13;;;;;;;9.63;8.60;;;;;;;;;;5081096;28;20317;-68
2022/11/28 18:54:40;;;;;;;14.37;10.60;;;;;;;;;;5081701;28;20301;-67
2022/11/28 18:57:08;;;;;;;15.50;11.07;;;;;;;;;;5083854;28;20203;-67
2022/11/28 18:59:35;;;;;;;11.03;9.20;;;;;;;;;;5077959;28;20213;-68
2022/11/28 19:02:02;;;;;;;12.43;9.93;;;;;;;;;;5079153;28;20230;-67
2022/11/28 19:04:29;;;;;;;12.77;9.47;;;;;;;;;;5091779;28;20197;-67
2022/11/28 19:06:56;;;;;;;10.97;9.87;;;;;;;;;;5081913;28;20194;-67
2022/11/28 19:09:25;;;;;;;9.47;8.47;;;;;;;;;;5076907;28;20288;-68
2022/11/28 19:11:52;;;;;;;9.80;8.13;;;;;;;;;;5079580;28;20201;-69
2022/11/28 19:14:21;;;;;;;12.40;9.80;;;;;;;;;;5080348;28;20212;-67
2022/11/28 19:16:48;;;;;;;11.67;9.63;;;;;;;;;;5082485;28;20198;-68
2022/11/28 19:19:15;;;;;;;9.27;8.37;;;;;;;;;;5077735;28;20205;-68
2022/11/28 19:21:43;;;;;;;10.43;9.20;;;;;;;;;;5074194;28;20306;-69
2022/11/28 19:24:11;;;;;;;10.30;9.00;;;;;;;;;;5075285;28;20290;-68
2022/11/28 19:26:39;;;;;;;10.67;9.23;;;;;;;;;;5076602;28;20215;-69
2022/11/28 19:29:07;;;;;;;11.87;9.57;;;;;;;;;;5080584;28;20201;-68
2022/11/28 19:31:35;;;;;;;14.20;10.50;;;;;;;;;;5088857;28;20205;-68
2022/11/28 19:34:03;;;;;;;19.10;12.07;;;;;;;;;;5081370;28;20208;-69
2022/11/28 19:36:30;;;;;;;15.40;12.47;;;;;;;;;;5078123;28;20292;-68
2022/11/28 19:38:58;;;;;;;12.50;11.13;;;;;;;;;;5073218;28;20199;-69
2022/11/28 19:41:25;;;;;;;12.57;10.70;;;;;;;;;;5084025;28;20206;-67
2022/11/28 19:43:54;;;;;;;15.40;12.47;;;;;;;;;;5085535;28;20290;-69
2022/11/28 19:46:21;;;;;;;13.33;11.73;;;;;;;;;;5082642;28;20285;-68
2022/11/28 19:48:50;;;;;;;15.10;11.90;;;;;;;;;;5078094;28;20305;-67
2022/11/28 19:51:17;;;;;;;12.40;10.13;;;;;;;;;;5083884;28;20198;-69
2022/11/28 19:53:44;;;;;;;21.53;13.37;;;;;;;;;;5081325;28;20313;-67
2022/11/28 19:56:12;;;;;;;17.27;12.83;;;;;;;;;;5078386;28;20234;-68
2022/11/28 19:58:40;;;;;;;19.97;13.67;;;;;;;;;;5081808;28;20206;-69
2022/11/28 20:01:10;;;;;;;21.63;14.63;;;;;;;;;;5085094;28;20292;-68
2022/11/28 20:03:38;;;;;;;18.47;13.63;;;;;;;;;;5081036;28;20220;-68
2022/11/28 20:06:07;;;;;;;16.23;12.60;;;;;;;;;;5080949;28;20219;-69
2022/11/28 20:08:34;;;;;;;16.63;12.83;;;;;;;;;;5080676;28;20202;-69
2022/11/28 20:11:07;;;;;;;19.97;15.50;;;;;;;;;;5084025;28;20220;-66
2022/11/28 20:13:34;;;;;;;19.60;15.13;;;;;;;;;;5081133;28;20201;-68
2022/11/28 20:16:02;;;;;;;23.20;16.43;;;;;;;;;;5079262;28;20288;-69
2022/11/28 20:18:31;;;;;;;22.47;15.83;;;;;;;;;;5079010;28;20206;-68
2022/11/28 20:21:03;;;;;;;16.70;13.60;;;;;;;;;;5078911;28;20281;-69
2022/11/28 20:23:31;;;;;;;27.57;17.53;;;;;;;;;;5074997;28;20226;-66
2022/11/28 20:26:02;;;;;;;20.27;13.10;;;;;;;;;;5081264;28;20244;-67
2022/11/28 20:28:31;;;;;;;17.40;13.10;;;;;;;;;;5082346;28;20204;-68
2022/11/28 20:30:58;;;;;;;24.67;15.70;;;;;;;;;;5081218;28;20293;-68
2022/11/28 20:33:25;;;;;;;27.77;15.83;;;;;;;;;;5087181;28;20198;-68
2022/11/28 20:35:53;;;;;;;19.50;14.87;;;;;;;;;;5081822;28;20198;-68
2022/11/28 20:38:21;;;;;;;19.37;14.03;;;;;;;;;;5083193;28;20294;-68
2022/11/28 20:40:48;;;;;;;21.63;14.87;;;;;;;;;;5091593;28;20293;-68
2022/11/28 20:43:15;;;;;;;17.50;13.50;;;;;;;;;;5089720;28;20345;-68
2022/11/28 20:45:42;;;;;;;12.63;11.20;;;;;;;;;;5090866;28;20198;-68
2022/11/28 20:48:09;;;;;;;17.43;13.27;;;;;;;;;;5087694;28;20266;-68
2022/11/28 20:50:36;;;;;;;15.60;12.57;;;;;;;;;;5085728;28;20257;-68
2022/11/28 20:53:05;;;;;;;12.90;11.43;;;;;;;;;;5082496;28;20235;-68
2022/11/28 20:55:32;;;;;;;16.60;13.30;;;;;;;;;;5091304;28;20248;-67
2022/11/28 20:57:59;;;;;;;11.37;10.27;;;;;;;;;;5090742;28;20267;-68
2022/11/28 21:00:26;;;;;;;13.97;12.23;;;;;;;;;;5091131;28;20274;-72
2022/11/28 21:02:54;;;;;;;12.77;11.03;;;;;;;;;;5082798;28;20301;-68
2022/11/28 21:05:21;;;;;;;13.00;10.50;;;;;;;;;;5085452;28;20248;-68
2022/11/28 21:07:48;;;;;;;11.20;9.37;;;;;;;;;;5082841;28;20314;-69
2022/11/28 21:10:16;;;;;;;8.73;7.93;;;;;;;;;;5083049;28;20277;-68
2022/11/28 21:12:44;;;;;;;9.80;8.70;;;;;;;;;;5085428;28;20286;-68
2022/11/28 21:15:11;;;;;;;8.27;7.50;;;;;;;;;;5089592;28;20289;-68
2022/11/28 21:17:38;;;;;;;8.70;7.80;;;;;;;;;;5090333;28;20293;-69
2022/11/28 21:20:06;;;;;;;8.80;8.00;;;;;;;;;;5086199;28;20209;-66
2022/11/28 21:22:35;;;;;;;7.40;6.70;;;;;;;;;;5082847;28;20233;-67
2022/11/28 21:25:02;;;;;;;8.03;7.23;;;;;;;;;;5078957;28;20206;-67
2022/11/28 21:27:30;;;;;;;12.23;9.37;;;;;;;;;;5076919;28;20202;-68
2022/11/28 21:29:58;;;;;;;9.97;8.60;;;;;;;;;;5083464;28;20198;-69
2022/11/28 21:32:25;;;;;;;20.80;18.60;;;;;;;;;;5084128;28;20265;-68
2022/11/28 21:34:52;;;;;;;11.60;9.53;;;;;;;;;;5084178;28;20217;-67
2022/11/28 21:37:19;;;;;;;9.23;8.23;;;;;;;;;;5084115;28;20206;-67
2022/11/28 21:39:46;;;;;;;10.63;8.47;;;;;;;;;;5080151;28;20299;-68
2022/11/28 21:42:14;;;;;;;10.60;8.60;;;;;;;;;;5073864;28;20205;-69
2022/11/28 21:44:42;;;;;;;9.30;7.50;;;;;;;;;;5087275;28;20264;-68
2022/11/28 21:47:09;;;;;;;8.77;7.97;;;;;;;;;;5084456;28;20285;-67
2022/11/28 21:49:36;;;;;;;7.33;6.63;;;;;;;;;;5086510;28;20194;-68
2022/11/28 21:52:04;;;;;;;10.73;7.87;;;;;;;;;;5081639;28;20326;-69
2022/11/28 21:54:32;;;;;;;8.37;7.50;;;;;;;;;;5082766;28;20198;-67
2022/11/28 21:56:59;;;;;;;8.63;7.30;;;;;;;;;;5077193;28;20237;-69
2022/11/28 21:59:26;;;;;;;8.43;6.90;;;;;;;;;;5085042;28;20251;-67
2022/11/28 22:01:54;;;;;;;11.03;8.70;;;;;;;;;;5082564;28;20289;-68
2022/11/28 22:04:22;;;;;;;10.27;8.37;;;;;;;;;;5082262;28;20228;-68
2022/11/28 22:06:50;;;;;;;9.97;7.97;;;;;;;;;;5086842;28;20255;-68
2022/11/28 22:09:17;;;;;;;11.13;8.17;;;;;;;;;;5081210;28;20237;-67
2022/11/28 22:11:44;;;;;;;8.33;7.43;;;;;;;;;;5077004;28;20801;-68
2022/11/28 22:14:11;;;;;;;7.83;7.03;;;;;;;;;;5086296;28;20201;-66
2022/11/28 22:16:38;;;;;;;8.80;7.47;;;;;;;;;;5077591;28;20297;-69
2022/11/28 22:19:07;;;;;;;9.97;8.00;;;;;;;;;;5087875;28;20275;-68
2022/11/28 22:21:36;;;;;;;7.60;6.80;;;;;;;;;;5084192;28;20244;-68
2022/11/28 22:24:04;;;;;;;7.10;6.40;;;;;;;;;;5084006;28;20229;-68
2022/11/28 22:26:31;;;;;;;8.13;6.83;;;;;;;;;;5090845;28;20252;-68
2022/11/28 22:28:59;;;;;;;8.00;7.20;;;;;;;;;;5082872;28;20212;-68
2022/11/28 22:31:26;;;;;;;9.17;7.20;;;;;;;;;;5090792;28;20221;-67
2022/11/28 22:33:54;;;;;;;11.03;7.90;;;;;;;;;;5085036;28;20225;-69
2022/11/28 22:36:22;;;;;;;9.63;8.00;;;;;;;;;;5085459;28;20206;-68
2022/11/28 22:38:50;;;;;;;12.20;8.97;;;;;;;;;;5088142;28;20446;-68
2022/11/28 22:41:18;;;;;;;14.13;9.90;;;;;;;;;;5088589;28;20285;-68
2022/11/28 22:43:46;;;;;;;14.63;10.10;;;;;;;;;;5089316;28;20285;-67
2022/11/28 22:46:13;;;;;;;21.60;12.83;;;;;;;;;;5088809;28;20199;-68
2022/11/28 22:48:40;;;;;;;17.83;10.47;;;;;;;;;;5076879;28;20266;-67
2022/11/28 22:51:07;;;;;;;13.10;9.60;;;;;;;;;;5090789;28;20266;-68
2022/11/28 22:53:36;;;;;;;8.70;7.77;;;;;;;;;;5087774;28;20222;-68
2022/11/28 22:56:04;;;;;;;10.53;8.63;;;;;;;;;;5085546;28;20222;-68
2022/11/28 22:58:34;;;;;;;8.80;7.90;;;;;;;;;;5081966;28;20209;-68
2022/11/28 23:01:01;;;;;;;12.23;8.67;;;;;;;;;;5087328;28;20206;-68
2022/11/28 23:03:28;;;;;;;12.20;8.33;;;;;;;;;;5085790;28;20300;-67
2022/11/28 23:05:56;;;;;;;9.83;7.30;;;;;;;;;;5088063;28;20206;-68
2022/11/28 23:08:23;;;;;;;8.70;7.80;;;;;;;;;;5086419;28;20205;-68
2022/11/28 23:10:51;;;;;;;8.00;7.13;;;;;;;;;;5087377;28;20323;-69
2022/11/28 23:13:19;;;;;;;10.40;7.93;;;;;;;;;;5077778;28;20202;-68
2022/11/28 23:15:46;;;;;;;9.67;7.33;;;;;;;;;;5091789;28;20297;-68
2022/11/28 23:18:13;;;;;;;10.00;7.30;;;;;;;;;;5084180;28;20217;-68
2022/11/28 23:20:40;;;;;;;9.83;7.40;;;;;;;;;;5098772;28;20280;-69
2022/11/28 23:23:08;;;;;;;10.27;7.30;;;;;;;;;;5085103;28;20288;-68
2022/11/28 23:25:36;;;;;;;11.60;8.70;;;;;;;;;;5088667;28;20313;-68
2022/11/28 23:28:04;;;;;;;9.17;7.97;;;;;;;;;;5083360;28;20233;-68
2022/11/28 23:30:31;;;;;;;8.63;6.70;;;;;;;;;;5088466;28;20198;-68
2022/11/28 23:32:59;;;;;;;8.33;6.77;;;;;;;;;;5090735;28;20205;-67
2022/11/28 23:35:26;;;;;;;7.37;6.67;;;;;;;;;;5090395;28;20208;-67
2022/11/28 23:37:53;;;;;;;7.30;6.60;;;;;;;;;;5081184;28;20289;-68
2022/11/28 23:40:20;;;;;;;10.80;7.37;;;;;;;;;;5088108;28;20233;-68
2022/11/28 23:42:47;;;;;;;8.07;7.20;;;;;;;;;;5087249;28;20289;-66
2022/11/28 23:45:16;;;;;;;6.83;6.13;;;;;;;;;;5088562;28;20223;-67
2022/11/28 23:47:43;;;;;;;8.40;6.73;;;;;;;;;;5089686;28;20238;-68
2022/11/28 23:50:10;;;;;;;9.03;7.40;;;;;;;;;;5088592;28;20292;-67
2022/11/28 23:52:37;;;;;;;7.27;6.10;;;;;;;;;;5090110;28;20261;-68
2022/11/28 23:55:05;;;;;;;6.80;5.90;;;;;;;;;;5088958;28;20289;-68
2022/11/28 23:57:32;;;;;;;6.87;6.17;;;;;;;;;;5081189;28;20266;-66
2022/11/28 23:59:59;;;;;;;7.77;5.70;;;;;;;;;;5087540;28;20202;-68
